<?xml version="1.0" encoding="UTF-8" standalone="no" ?>
<gpx xmlns="http://www.topografix.com/GPX/1/1" xmlns:xsi="http://www.w3.org/2001/XMLSchema-instance" xsi:schemaLocation="http://www.topografix.com/GPX/1/1 http://www.topografix.com/GPX/1/1/gpx.xsd" version="1.1" creator="VisuGPX - https://www.visugpx.com">
  <metadata>
    <name>2026-03-22 Randonnée TwoNav</name>
    <desc><![CDATA[Tour de l'île de loisirs des boucles de Seine]]></desc>
  </metadata>
  <trk>
    <name><![CDATA[2026-03-22_143311]]></name>
    <extensions>
      <line xmlns="http://www.topografix.com/GPX/gpx_style/0/2">
        <width>4</width>
      </line>
    </extensions>
    <trkseg>
      <trkpt lat="49.05984" lon="1.67978">
        <ele>60.3</ele>
        <time>2026-03-22T13:33:11.000Z</time>
      </trkpt>
      <trkpt lat="49.05984" lon="1.67978">
        <ele>60.3</ele>
        <time>2026-03-22T13:33:12.000Z</time>
      </trkpt>
      <trkpt lat="49.05983" lon="1.67978">
        <ele>60.4</ele>
        <time>2026-03-22T13:33:36.000Z</time>
      </trkpt>
      <trkpt lat="49.0598" lon="1.67982">
        <ele>61</ele>
        <time>2026-03-22T13:33:42.000Z</time>
      </trkpt>
      <trkpt lat="49.05972" lon="1.67988">
        <ele>63.2</ele>
        <time>2026-03-22T13:34:00.000Z</time>
      </trkpt>
      <trkpt lat="49.05971" lon="1.68004">
        <ele>64</ele>
        <time>2026-03-22T13:34:09.000Z</time>
      </trkpt>
      <trkpt lat="49.0597" lon="1.68019">
        <ele>64.8</ele>
        <time>2026-03-22T13:34:19.000Z</time>
      </trkpt>
      <trkpt lat="49.05971" lon="1.68034">
        <ele>65.6</ele>
        <time>2026-03-22T13:34:28.000Z</time>
      </trkpt>
      <trkpt lat="49.0597" lon="1.68048">
        <ele>66.5</ele>
        <time>2026-03-22T13:34:37.000Z</time>
      </trkpt>
      <trkpt lat="49.05964" lon="1.6806">
        <ele>68</ele>
        <time>2026-03-22T13:34:51.000Z</time>
      </trkpt>
      <trkpt lat="49.05958" lon="1.68069">
        <ele>69</ele>
        <time>2026-03-22T13:35:02.000Z</time>
      </trkpt>
      <trkpt lat="49.05962" lon="1.68083">
        <ele>69.7</ele>
        <time>2026-03-22T13:35:12.000Z</time>
      </trkpt>
      <trkpt lat="49.05966" lon="1.68097">
        <ele>70.3</ele>
        <time>2026-03-22T13:35:21.000Z</time>
      </trkpt>
      <trkpt lat="49.05969" lon="1.6811">
        <ele>71</ele>
        <time>2026-03-22T13:35:30.000Z</time>
      </trkpt>
      <trkpt lat="49.05973" lon="1.68123">
        <ele>71.5</ele>
        <time>2026-03-22T13:35:38.000Z</time>
      </trkpt>
      <trkpt lat="49.05977" lon="1.68136">
        <ele>72</ele>
        <time>2026-03-22T13:35:47.000Z</time>
      </trkpt>
      <trkpt lat="49.05981" lon="1.68149">
        <ele>72.5</ele>
        <time>2026-03-22T13:35:56.000Z</time>
      </trkpt>
      <trkpt lat="49.05987" lon="1.6816">
        <ele>73</ele>
        <time>2026-03-22T13:36:05.000Z</time>
      </trkpt>
      <trkpt lat="49.05993" lon="1.68171">
        <ele>73.6</ele>
        <time>2026-03-22T13:36:15.000Z</time>
      </trkpt>
      <trkpt lat="49.05998" lon="1.68184">
        <ele>74.2</ele>
        <time>2026-03-22T13:36:24.000Z</time>
      </trkpt>
      <trkpt lat="49.06003" lon="1.68196">
        <ele>74.7</ele>
        <time>2026-03-22T13:36:32.000Z</time>
      </trkpt>
      <trkpt lat="49.06007" lon="1.68209">
        <ele>75.3</ele>
        <time>2026-03-22T13:36:41.000Z</time>
      </trkpt>
      <trkpt lat="49.06012" lon="1.68223">
        <ele>75.8</ele>
        <time>2026-03-22T13:36:50.000Z</time>
      </trkpt>
      <trkpt lat="49.06016" lon="1.68237">
        <ele>76.3</ele>
        <time>2026-03-22T13:36:59.000Z</time>
      </trkpt>
      <trkpt lat="49.06021" lon="1.6825">
        <ele>76.8</ele>
        <time>2026-03-22T13:37:08.000Z</time>
      </trkpt>
      <trkpt lat="49.06028" lon="1.68261">
        <ele>77.2</ele>
        <time>2026-03-22T13:37:17.000Z</time>
      </trkpt>
      <trkpt lat="49.06036" lon="1.68269">
        <ele>77.6</ele>
        <time>2026-03-22T13:37:25.000Z</time>
      </trkpt>
      <trkpt lat="49.06043" lon="1.68277">
        <ele>77.9</ele>
        <time>2026-03-22T13:37:33.000Z</time>
      </trkpt>
      <trkpt lat="49.06052" lon="1.68286">
        <ele>78.2</ele>
        <time>2026-03-22T13:37:42.000Z</time>
      </trkpt>
      <trkpt lat="49.06059" lon="1.68294">
        <ele>78.5</ele>
        <time>2026-03-22T13:37:51.000Z</time>
      </trkpt>
      <trkpt lat="49.06066" lon="1.68305">
        <ele>78.7</ele>
        <time>2026-03-22T13:38:01.000Z</time>
      </trkpt>
      <trkpt lat="49.06072" lon="1.68315">
        <ele>78.9</ele>
        <time>2026-03-22T13:38:10.000Z</time>
      </trkpt>
      <trkpt lat="49.06079" lon="1.68324">
        <ele>79</ele>
        <time>2026-03-22T13:38:18.000Z</time>
      </trkpt>
      <trkpt lat="49.06086" lon="1.68333">
        <ele>79.1</ele>
        <time>2026-03-22T13:38:27.000Z</time>
      </trkpt>
      <trkpt lat="49.06094" lon="1.68342">
        <ele>79.2</ele>
        <time>2026-03-22T13:38:37.000Z</time>
      </trkpt>
      <trkpt lat="49.06103" lon="1.68347">
        <ele>79.2</ele>
        <time>2026-03-22T13:38:46.000Z</time>
      </trkpt>
      <trkpt lat="49.06113" lon="1.68346">
        <ele>79.2</ele>
        <time>2026-03-22T13:38:55.000Z</time>
      </trkpt>
      <trkpt lat="49.06122" lon="1.68343">
        <ele>79.1</ele>
        <time>2026-03-22T13:39:05.000Z</time>
      </trkpt>
      <trkpt lat="49.06131" lon="1.68349">
        <ele>78.9</ele>
        <time>2026-03-22T13:39:15.000Z</time>
      </trkpt>
      <trkpt lat="49.06137" lon="1.68359">
        <ele>78.5</ele>
        <time>2026-03-22T13:39:23.000Z</time>
      </trkpt>
      <trkpt lat="49.06145" lon="1.68367">
        <ele>77.8</ele>
        <time>2026-03-22T13:39:32.000Z</time>
      </trkpt>
      <trkpt lat="49.06153" lon="1.68375">
        <ele>77.2</ele>
        <time>2026-03-22T13:39:41.000Z</time>
      </trkpt>
      <trkpt lat="49.06161" lon="1.68382">
        <ele>76.6</ele>
        <time>2026-03-22T13:39:49.000Z</time>
      </trkpt>
      <trkpt lat="49.06169" lon="1.68388">
        <ele>76.1</ele>
        <time>2026-03-22T13:39:57.000Z</time>
      </trkpt>
      <trkpt lat="49.06177" lon="1.68396">
        <ele>75.5</ele>
        <time>2026-03-22T13:40:07.000Z</time>
      </trkpt>
      <trkpt lat="49.06183" lon="1.68407">
        <ele>74.9</ele>
        <time>2026-03-22T13:40:17.000Z</time>
      </trkpt>
      <trkpt lat="49.06189" lon="1.68417">
        <ele>74.3</ele>
        <time>2026-03-22T13:40:25.000Z</time>
      </trkpt>
      <trkpt lat="49.06192" lon="1.68431">
        <ele>73.9</ele>
        <time>2026-03-22T13:40:33.000Z</time>
      </trkpt>
      <trkpt lat="49.06195" lon="1.68444">
        <ele>73.4</ele>
        <time>2026-03-22T13:40:41.000Z</time>
      </trkpt>
      <trkpt lat="49.06198" lon="1.68458">
        <ele>72.8</ele>
        <time>2026-03-22T13:40:50.000Z</time>
      </trkpt>
      <trkpt lat="49.06201" lon="1.68472">
        <ele>72.3</ele>
        <time>2026-03-22T13:40:59.000Z</time>
      </trkpt>
      <trkpt lat="49.06203" lon="1.68486">
        <ele>71.8</ele>
        <time>2026-03-22T13:41:07.000Z</time>
      </trkpt>
      <trkpt lat="49.06205" lon="1.685">
        <ele>71.3</ele>
        <time>2026-03-22T13:41:16.000Z</time>
      </trkpt>
      <trkpt lat="49.06208" lon="1.68515">
        <ele>70.8</ele>
        <time>2026-03-22T13:41:26.000Z</time>
      </trkpt>
      <trkpt lat="49.06209" lon="1.68529">
        <ele>70.5</ele>
        <time>2026-03-22T13:41:34.000Z</time>
      </trkpt>
      <trkpt lat="49.06211" lon="1.68543">
        <ele>70.2</ele>
        <time>2026-03-22T13:41:42.000Z</time>
      </trkpt>
      <trkpt lat="49.06212" lon="1.68558">
        <ele>69.8</ele>
        <time>2026-03-22T13:41:50.000Z</time>
      </trkpt>
      <trkpt lat="49.06212" lon="1.68572">
        <ele>69.3</ele>
        <time>2026-03-22T13:41:59.000Z</time>
      </trkpt>
      <trkpt lat="49.06214" lon="1.68587">
        <ele>68.4</ele>
        <time>2026-03-22T13:42:15.000Z</time>
      </trkpt>
      <trkpt lat="49.06215" lon="1.68602">
        <ele>67.9</ele>
        <time>2026-03-22T13:42:23.000Z</time>
      </trkpt>
      <trkpt lat="49.06216" lon="1.68616">
        <ele>67.2</ele>
        <time>2026-03-22T13:42:32.000Z</time>
      </trkpt>
      <trkpt lat="49.06217" lon="1.68631">
        <ele>66.5</ele>
        <time>2026-03-22T13:42:44.000Z</time>
      </trkpt>
      <trkpt lat="49.06218" lon="1.68646">
        <ele>65.9</ele>
        <time>2026-03-22T13:42:53.000Z</time>
      </trkpt>
      <trkpt lat="49.06218" lon="1.6866">
        <ele>65.5</ele>
        <time>2026-03-22T13:43:01.000Z</time>
      </trkpt>
      <trkpt lat="49.0622" lon="1.68675">
        <ele>64.9</ele>
        <time>2026-03-22T13:43:10.000Z</time>
      </trkpt>
      <trkpt lat="49.06221" lon="1.68689">
        <ele>64.3</ele>
        <time>2026-03-22T13:43:19.000Z</time>
      </trkpt>
      <trkpt lat="49.06222" lon="1.68705">
        <ele>63.7</ele>
        <time>2026-03-22T13:43:28.000Z</time>
      </trkpt>
      <trkpt lat="49.06223" lon="1.6872">
        <ele>63.2</ele>
        <time>2026-03-22T13:43:37.000Z</time>
      </trkpt>
      <trkpt lat="49.06224" lon="1.68735">
        <ele>62.7</ele>
        <time>2026-03-22T13:43:46.000Z</time>
      </trkpt>
      <trkpt lat="49.06225" lon="1.68749">
        <ele>62.4</ele>
        <time>2026-03-22T13:43:55.000Z</time>
      </trkpt>
      <trkpt lat="49.06226" lon="1.68764">
        <ele>62.1</ele>
        <time>2026-03-22T13:44:03.000Z</time>
      </trkpt>
      <trkpt lat="49.06227" lon="1.68778">
        <ele>61.8</ele>
        <time>2026-03-22T13:44:11.000Z</time>
      </trkpt>
      <trkpt lat="49.06226" lon="1.68792">
        <ele>61.2</ele>
        <time>2026-03-22T13:44:32.000Z</time>
      </trkpt>
      <trkpt lat="49.06227" lon="1.68807">
        <ele>60.8</ele>
        <time>2026-03-22T13:44:41.000Z</time>
      </trkpt>
      <trkpt lat="49.06228" lon="1.68823">
        <ele>60.5</ele>
        <time>2026-03-22T13:44:50.000Z</time>
      </trkpt>
      <trkpt lat="49.06229" lon="1.68836">
        <ele>60.2</ele>
        <time>2026-03-22T13:44:58.000Z</time>
      </trkpt>
      <trkpt lat="49.06231" lon="1.68851">
        <ele>60</ele>
        <time>2026-03-22T13:45:07.000Z</time>
      </trkpt>
      <trkpt lat="49.06232" lon="1.68866">
        <ele>59.8</ele>
        <time>2026-03-22T13:45:16.000Z</time>
      </trkpt>
      <trkpt lat="49.06233" lon="1.6888">
        <ele>59.6</ele>
        <time>2026-03-22T13:45:25.000Z</time>
      </trkpt>
      <trkpt lat="49.06234" lon="1.68894">
        <ele>59.6</ele>
        <time>2026-03-22T13:45:33.000Z</time>
      </trkpt>
      <trkpt lat="49.06236" lon="1.68909">
        <ele>59.5</ele>
        <time>2026-03-22T13:45:42.000Z</time>
      </trkpt>
      <trkpt lat="49.06238" lon="1.68923">
        <ele>59.4</ele>
        <time>2026-03-22T13:45:51.000Z</time>
      </trkpt>
      <trkpt lat="49.06239" lon="1.68937">
        <ele>59.4</ele>
        <time>2026-03-22T13:46:00.000Z</time>
      </trkpt>
      <trkpt lat="49.0624" lon="1.68951">
        <ele>59.3</ele>
        <time>2026-03-22T13:46:08.000Z</time>
      </trkpt>
      <trkpt lat="49.0624" lon="1.68965">
        <ele>59.3</ele>
        <time>2026-03-22T13:46:16.000Z</time>
      </trkpt>
      <trkpt lat="49.06241" lon="1.6898">
        <ele>59.3</ele>
        <time>2026-03-22T13:46:25.000Z</time>
      </trkpt>
      <trkpt lat="49.06242" lon="1.68994">
        <ele>59.3</ele>
        <time>2026-03-22T13:46:34.000Z</time>
      </trkpt>
      <trkpt lat="49.06243" lon="1.69008">
        <ele>59.3</ele>
        <time>2026-03-22T13:46:43.000Z</time>
      </trkpt>
      <trkpt lat="49.06244" lon="1.69023">
        <ele>59.3</ele>
        <time>2026-03-22T13:46:52.000Z</time>
      </trkpt>
      <trkpt lat="49.06245" lon="1.69038">
        <ele>59.4</ele>
        <time>2026-03-22T13:47:00.000Z</time>
      </trkpt>
      <trkpt lat="49.06242" lon="1.69052">
        <ele>59.4</ele>
        <time>2026-03-22T13:47:08.000Z</time>
      </trkpt>
      <trkpt lat="49.06238" lon="1.69066">
        <ele>59.4</ele>
        <time>2026-03-22T13:47:18.000Z</time>
      </trkpt>
      <trkpt lat="49.06232" lon="1.69077">
        <ele>59.5</ele>
        <time>2026-03-22T13:47:26.000Z</time>
      </trkpt>
      <trkpt lat="49.06225" lon="1.69087">
        <ele>59.5</ele>
        <time>2026-03-22T13:47:34.000Z</time>
      </trkpt>
      <trkpt lat="49.06217" lon="1.69094">
        <ele>59.6</ele>
        <time>2026-03-22T13:47:42.000Z</time>
      </trkpt>
      <trkpt lat="49.06208" lon="1.69097">
        <ele>59.6</ele>
        <time>2026-03-22T13:47:50.000Z</time>
      </trkpt>
      <trkpt lat="49.06198" lon="1.69101">
        <ele>59.7</ele>
        <time>2026-03-22T13:47:58.000Z</time>
      </trkpt>
      <trkpt lat="49.06188" lon="1.69103">
        <ele>59.7</ele>
        <time>2026-03-22T13:48:07.000Z</time>
      </trkpt>
      <trkpt lat="49.06178" lon="1.69104">
        <ele>59.7</ele>
        <time>2026-03-22T13:48:15.000Z</time>
      </trkpt>
      <trkpt lat="49.06169" lon="1.69106">
        <ele>59.6</ele>
        <time>2026-03-22T13:48:23.000Z</time>
      </trkpt>
      <trkpt lat="49.0616" lon="1.69105">
        <ele>59.6</ele>
        <time>2026-03-22T13:48:31.000Z</time>
      </trkpt>
      <trkpt lat="49.0615" lon="1.69107">
        <ele>59.6</ele>
        <time>2026-03-22T13:48:47.000Z</time>
      </trkpt>
      <trkpt lat="49.06139" lon="1.69106">
        <ele>59.6</ele>
        <time>2026-03-22T13:48:56.000Z</time>
      </trkpt>
      <trkpt lat="49.0613" lon="1.69105">
        <ele>59.6</ele>
        <time>2026-03-22T13:49:04.000Z</time>
      </trkpt>
      <trkpt lat="49.06121" lon="1.69105">
        <ele>59.6</ele>
        <time>2026-03-22T13:49:13.000Z</time>
      </trkpt>
      <trkpt lat="49.06111" lon="1.69107">
        <ele>59.5</ele>
        <time>2026-03-22T13:49:26.000Z</time>
      </trkpt>
      <trkpt lat="49.06102" lon="1.69109">
        <ele>59.5</ele>
        <time>2026-03-22T13:49:35.000Z</time>
      </trkpt>
      <trkpt lat="49.06099" lon="1.69122">
        <ele>59.5</ele>
        <time>2026-03-22T13:49:50.000Z</time>
      </trkpt>
      <trkpt lat="49.06094" lon="1.69109">
        <ele>58.9</ele>
        <time>2026-03-22T13:50:19.000Z</time>
      </trkpt>
      <trkpt lat="49.06084" lon="1.6911">
        <ele>58.6</ele>
        <time>2026-03-22T13:50:28.000Z</time>
      </trkpt>
      <trkpt lat="49.06074" lon="1.69108">
        <ele>58.2</ele>
        <time>2026-03-22T13:50:37.000Z</time>
      </trkpt>
      <trkpt lat="49.06066" lon="1.69114">
        <ele>57.6</ele>
        <time>2026-03-22T13:50:53.000Z</time>
      </trkpt>
      <trkpt lat="49.06056" lon="1.69116">
        <ele>57.2</ele>
        <time>2026-03-22T13:51:02.000Z</time>
      </trkpt>
      <trkpt lat="49.06047" lon="1.69117">
        <ele>56.6</ele>
        <time>2026-03-22T13:51:12.000Z</time>
      </trkpt>
      <trkpt lat="49.06037" lon="1.69119">
        <ele>56.1</ele>
        <time>2026-03-22T13:51:21.000Z</time>
      </trkpt>
      <trkpt lat="49.06027" lon="1.69117">
        <ele>55.8</ele>
        <time>2026-03-22T13:51:30.000Z</time>
      </trkpt>
      <trkpt lat="49.06017" lon="1.69117">
        <ele>55.4</ele>
        <time>2026-03-22T13:51:40.000Z</time>
      </trkpt>
      <trkpt lat="49.06008" lon="1.69115">
        <ele>55</ele>
        <time>2026-03-22T13:51:49.000Z</time>
      </trkpt>
      <trkpt lat="49.05998" lon="1.69115">
        <ele>54.7</ele>
        <time>2026-03-22T13:51:57.000Z</time>
      </trkpt>
      <trkpt lat="49.05988" lon="1.69112">
        <ele>54.3</ele>
        <time>2026-03-22T13:52:07.000Z</time>
      </trkpt>
      <trkpt lat="49.05979" lon="1.69113">
        <ele>53.9</ele>
        <time>2026-03-22T13:52:16.000Z</time>
      </trkpt>
      <trkpt lat="49.0597" lon="1.69116">
        <ele>53.4</ele>
        <time>2026-03-22T13:52:26.000Z</time>
      </trkpt>
      <trkpt lat="49.0596" lon="1.69119">
        <ele>53</ele>
        <time>2026-03-22T13:52:35.000Z</time>
      </trkpt>
      <trkpt lat="49.05951" lon="1.69124">
        <ele>52.7</ele>
        <time>2026-03-22T13:52:44.000Z</time>
      </trkpt>
      <trkpt lat="49.05942" lon="1.69129">
        <ele>52.3</ele>
        <time>2026-03-22T13:52:53.000Z</time>
      </trkpt>
      <trkpt lat="49.05933" lon="1.69129">
        <ele>51.9</ele>
        <time>2026-03-22T13:53:01.000Z</time>
      </trkpt>
      <trkpt lat="49.05924" lon="1.69128">
        <ele>51.5</ele>
        <time>2026-03-22T13:53:09.000Z</time>
      </trkpt>
      <trkpt lat="49.05915" lon="1.69128">
        <ele>51</ele>
        <time>2026-03-22T13:53:17.000Z</time>
      </trkpt>
      <trkpt lat="49.05905" lon="1.69124">
        <ele>50.5</ele>
        <time>2026-03-22T13:53:25.000Z</time>
      </trkpt>
      <trkpt lat="49.05897" lon="1.69119">
        <ele>50</ele>
        <time>2026-03-22T13:53:34.000Z</time>
      </trkpt>
      <trkpt lat="49.05887" lon="1.69114">
        <ele>49.4</ele>
        <time>2026-03-22T13:53:43.000Z</time>
      </trkpt>
      <trkpt lat="49.05879" lon="1.69109">
        <ele>48.8</ele>
        <time>2026-03-22T13:53:51.000Z</time>
      </trkpt>
      <trkpt lat="49.05869" lon="1.69105">
        <ele>48.1</ele>
        <time>2026-03-22T13:53:59.000Z</time>
      </trkpt>
      <trkpt lat="49.05861" lon="1.69099">
        <ele>47.3</ele>
        <time>2026-03-22T13:54:08.000Z</time>
      </trkpt>
      <trkpt lat="49.05852" lon="1.69096">
        <ele>46.6</ele>
        <time>2026-03-22T13:54:17.000Z</time>
      </trkpt>
      <trkpt lat="49.05843" lon="1.69091">
        <ele>46</ele>
        <time>2026-03-22T13:54:25.000Z</time>
      </trkpt>
      <trkpt lat="49.05834" lon="1.69086">
        <ele>45.5</ele>
        <time>2026-03-22T13:54:34.000Z</time>
      </trkpt>
      <trkpt lat="49.05825" lon="1.69081">
        <ele>45</ele>
        <time>2026-03-22T13:54:43.000Z</time>
      </trkpt>
      <trkpt lat="49.05817" lon="1.69076">
        <ele>44.6</ele>
        <time>2026-03-22T13:54:51.000Z</time>
      </trkpt>
      <trkpt lat="49.05808" lon="1.69072">
        <ele>44.3</ele>
        <time>2026-03-22T13:54:59.000Z</time>
      </trkpt>
      <trkpt lat="49.058" lon="1.69064">
        <ele>43.9</ele>
        <time>2026-03-22T13:55:08.000Z</time>
      </trkpt>
      <trkpt lat="49.05791" lon="1.69059">
        <ele>43.6</ele>
        <time>2026-03-22T13:55:16.000Z</time>
      </trkpt>
      <trkpt lat="49.05782" lon="1.69053">
        <ele>43.3</ele>
        <time>2026-03-22T13:55:25.000Z</time>
      </trkpt>
      <trkpt lat="49.05774" lon="1.69046">
        <ele>43.1</ele>
        <time>2026-03-22T13:55:34.000Z</time>
      </trkpt>
      <trkpt lat="49.05766" lon="1.69037">
        <ele>42.8</ele>
        <time>2026-03-22T13:55:43.000Z</time>
      </trkpt>
      <trkpt lat="49.05762" lon="1.69025">
        <ele>42.6</ele>
        <time>2026-03-22T13:55:52.000Z</time>
      </trkpt>
      <trkpt lat="49.05763" lon="1.69011">
        <ele>42.3</ele>
        <time>2026-03-22T13:56:02.000Z</time>
      </trkpt>
      <trkpt lat="49.05765" lon="1.68995">
        <ele>41.8</ele>
        <time>2026-03-22T13:56:12.000Z</time>
      </trkpt>
      <trkpt lat="49.05766" lon="1.68981">
        <ele>41.2</ele>
        <time>2026-03-22T13:56:21.000Z</time>
      </trkpt>
      <trkpt lat="49.05769" lon="1.68967">
        <ele>40.4</ele>
        <time>2026-03-22T13:56:31.000Z</time>
      </trkpt>
      <trkpt lat="49.05773" lon="1.68953">
        <ele>39.1</ele>
        <time>2026-03-22T13:56:45.000Z</time>
      </trkpt>
      <trkpt lat="49.05775" lon="1.6894">
        <ele>36.1</ele>
        <time>2026-03-22T13:57:13.000Z</time>
      </trkpt>
      <trkpt lat="49.05777" lon="1.68929">
        <ele>33.6</ele>
        <time>2026-03-22T13:57:42.000Z</time>
      </trkpt>
      <trkpt lat="49.05775" lon="1.68936">
        <ele>32.6</ele>
        <time>2026-03-22T13:57:55.000Z</time>
      </trkpt>
      <trkpt lat="49.05773" lon="1.6895">
        <ele>31.9</ele>
        <time>2026-03-22T13:58:06.000Z</time>
      </trkpt>
      <trkpt lat="49.0577" lon="1.68965">
        <ele>31.3</ele>
        <time>2026-03-22T13:58:18.000Z</time>
      </trkpt>
      <trkpt lat="49.05766" lon="1.68977">
        <ele>31</ele>
        <time>2026-03-22T13:58:30.000Z</time>
      </trkpt>
      <trkpt lat="49.05765" lon="1.68991">
        <ele>30.9</ele>
        <time>2026-03-22T13:58:41.000Z</time>
      </trkpt>
      <trkpt lat="49.05764" lon="1.69006">
        <ele>30.8</ele>
        <time>2026-03-22T13:58:53.000Z</time>
      </trkpt>
      <trkpt lat="49.05762" lon="1.69019">
        <ele>30.7</ele>
        <time>2026-03-22T13:59:05.000Z</time>
      </trkpt>
      <trkpt lat="49.05752" lon="1.69016">
        <ele>30.5</ele>
        <time>2026-03-22T13:59:18.000Z</time>
      </trkpt>
      <trkpt lat="49.05746" lon="1.69006">
        <ele>30.2</ele>
        <time>2026-03-22T13:59:27.000Z</time>
      </trkpt>
      <trkpt lat="49.05739" lon="1.68996">
        <ele>29.9</ele>
        <time>2026-03-22T13:59:36.000Z</time>
      </trkpt>
      <trkpt lat="49.05732" lon="1.68987">
        <ele>29.5</ele>
        <time>2026-03-22T13:59:45.000Z</time>
      </trkpt>
      <trkpt lat="49.05725" lon="1.68977">
        <ele>29</ele>
        <time>2026-03-22T13:59:54.000Z</time>
      </trkpt>
      <trkpt lat="49.05719" lon="1.68967">
        <ele>28.6</ele>
        <time>2026-03-22T14:00:02.000Z</time>
      </trkpt>
      <trkpt lat="49.05712" lon="1.68957">
        <ele>28.1</ele>
        <time>2026-03-22T14:00:11.000Z</time>
      </trkpt>
      <trkpt lat="49.05703" lon="1.6895">
        <ele>27.6</ele>
        <time>2026-03-22T14:00:20.000Z</time>
      </trkpt>
      <trkpt lat="49.05695" lon="1.68944">
        <ele>27</ele>
        <time>2026-03-22T14:00:32.000Z</time>
      </trkpt>
      <trkpt lat="49.05685" lon="1.68942">
        <ele>26</ele>
        <time>2026-03-22T14:00:50.000Z</time>
      </trkpt>
      <trkpt lat="49.05675" lon="1.68939">
        <ele>25.4</ele>
        <time>2026-03-22T14:01:00.000Z</time>
      </trkpt>
      <trkpt lat="49.05666" lon="1.68936">
        <ele>24.9</ele>
        <time>2026-03-22T14:01:08.000Z</time>
      </trkpt>
      <trkpt lat="49.05657" lon="1.68933">
        <ele>24.2</ele>
        <time>2026-03-22T14:01:17.000Z</time>
      </trkpt>
      <trkpt lat="49.05648" lon="1.68928">
        <ele>23.6</ele>
        <time>2026-03-22T14:01:26.000Z</time>
      </trkpt>
      <trkpt lat="49.05639" lon="1.68923">
        <ele>23.1</ele>
        <time>2026-03-22T14:01:36.000Z</time>
      </trkpt>
      <trkpt lat="49.0563" lon="1.68918">
        <ele>22.7</ele>
        <time>2026-03-22T14:01:45.000Z</time>
      </trkpt>
      <trkpt lat="49.05621" lon="1.68912">
        <ele>22.3</ele>
        <time>2026-03-22T14:01:55.000Z</time>
      </trkpt>
      <trkpt lat="49.05612" lon="1.68907">
        <ele>22</ele>
        <time>2026-03-22T14:02:04.000Z</time>
      </trkpt>
      <trkpt lat="49.05604" lon="1.689">
        <ele>21.2</ele>
        <time>2026-03-22T14:02:21.000Z</time>
      </trkpt>
      <trkpt lat="49.05596" lon="1.68893">
        <ele>20.9</ele>
        <time>2026-03-22T14:02:29.000Z</time>
      </trkpt>
      <trkpt lat="49.05588" lon="1.68886">
        <ele>20.6</ele>
        <time>2026-03-22T14:02:38.000Z</time>
      </trkpt>
      <trkpt lat="49.05579" lon="1.68879">
        <ele>20.3</ele>
        <time>2026-03-22T14:02:47.000Z</time>
      </trkpt>
      <trkpt lat="49.05571" lon="1.68871">
        <ele>20</ele>
        <time>2026-03-22T14:02:56.000Z</time>
      </trkpt>
      <trkpt lat="49.05563" lon="1.68865">
        <ele>19.7</ele>
        <time>2026-03-22T14:03:05.000Z</time>
      </trkpt>
      <trkpt lat="49.05553" lon="1.68859">
        <ele>19.4</ele>
        <time>2026-03-22T14:03:14.000Z</time>
      </trkpt>
      <trkpt lat="49.05546" lon="1.68851">
        <ele>19.1</ele>
        <time>2026-03-22T14:03:23.000Z</time>
      </trkpt>
      <trkpt lat="49.05537" lon="1.68843">
        <ele>18.7</ele>
        <time>2026-03-22T14:03:32.000Z</time>
      </trkpt>
      <trkpt lat="49.05529" lon="1.68834">
        <ele>18.4</ele>
        <time>2026-03-22T14:03:41.000Z</time>
      </trkpt>
      <trkpt lat="49.05522" lon="1.68825">
        <ele>18.1</ele>
        <time>2026-03-22T14:03:50.000Z</time>
      </trkpt>
      <trkpt lat="49.05513" lon="1.68817">
        <ele>17.9</ele>
        <time>2026-03-22T14:03:59.000Z</time>
      </trkpt>
      <trkpt lat="49.05506" lon="1.68808">
        <ele>17.6</ele>
        <time>2026-03-22T14:04:08.000Z</time>
      </trkpt>
      <trkpt lat="49.05498" lon="1.68799">
        <ele>17.3</ele>
        <time>2026-03-22T14:04:17.000Z</time>
      </trkpt>
      <trkpt lat="49.05491" lon="1.6879">
        <ele>17.1</ele>
        <time>2026-03-22T14:04:26.000Z</time>
      </trkpt>
      <trkpt lat="49.05484" lon="1.6878">
        <ele>16.9</ele>
        <time>2026-03-22T14:04:34.000Z</time>
      </trkpt>
      <trkpt lat="49.05476" lon="1.6877">
        <ele>16.7</ele>
        <time>2026-03-22T14:04:43.000Z</time>
      </trkpt>
      <trkpt lat="49.0547" lon="1.6876">
        <ele>16.5</ele>
        <time>2026-03-22T14:04:52.000Z</time>
      </trkpt>
      <trkpt lat="49.05463" lon="1.6875">
        <ele>16.1</ele>
        <time>2026-03-22T14:05:07.000Z</time>
      </trkpt>
      <trkpt lat="49.05455" lon="1.68738">
        <ele>15.9</ele>
        <time>2026-03-22T14:05:16.000Z</time>
      </trkpt>
      <trkpt lat="49.05448" lon="1.68728">
        <ele>15.6</ele>
        <time>2026-03-22T14:05:25.000Z</time>
      </trkpt>
      <trkpt lat="49.05441" lon="1.68718">
        <ele>15.4</ele>
        <time>2026-03-22T14:05:34.000Z</time>
      </trkpt>
      <trkpt lat="49.05435" lon="1.68707">
        <ele>15.2</ele>
        <time>2026-03-22T14:05:43.000Z</time>
      </trkpt>
      <trkpt lat="49.05428" lon="1.68697">
        <ele>15</ele>
        <time>2026-03-22T14:05:53.000Z</time>
      </trkpt>
      <trkpt lat="49.05421" lon="1.68687">
        <ele>14.8</ele>
        <time>2026-03-22T14:06:02.000Z</time>
      </trkpt>
      <trkpt lat="49.05416" lon="1.68675">
        <ele>14.5</ele>
        <time>2026-03-22T14:06:11.000Z</time>
      </trkpt>
      <trkpt lat="49.05411" lon="1.68664">
        <ele>14.1</ele>
        <time>2026-03-22T14:06:20.000Z</time>
      </trkpt>
      <trkpt lat="49.05405" lon="1.68651">
        <ele>13.8</ele>
        <time>2026-03-22T14:06:29.000Z</time>
      </trkpt>
      <trkpt lat="49.05403" lon="1.68649">
        <ele>13.2</ele>
        <time>2026-03-22T14:06:50.000Z</time>
      </trkpt>
      <trkpt lat="49.05402" lon="1.6864">
        <ele>12.5</ele>
        <time>2026-03-22T14:07:17.000Z</time>
      </trkpt>
      <trkpt lat="49.05396" lon="1.68627">
        <ele>12.3</ele>
        <time>2026-03-22T14:07:26.000Z</time>
      </trkpt>
      <trkpt lat="49.05391" lon="1.68616">
        <ele>12</ele>
        <time>2026-03-22T14:07:37.000Z</time>
      </trkpt>
      <trkpt lat="49.05385" lon="1.68605">
        <ele>11.9</ele>
        <time>2026-03-22T14:07:45.000Z</time>
      </trkpt>
      <trkpt lat="49.05378" lon="1.68595">
        <ele>11.7</ele>
        <time>2026-03-22T14:07:53.000Z</time>
      </trkpt>
      <trkpt lat="49.05372" lon="1.68584">
        <ele>11.6</ele>
        <time>2026-03-22T14:08:02.000Z</time>
      </trkpt>
      <trkpt lat="49.05367" lon="1.68572">
        <ele>11.5</ele>
        <time>2026-03-22T14:08:10.000Z</time>
      </trkpt>
      <trkpt lat="49.05361" lon="1.68561">
        <ele>11.3</ele>
        <time>2026-03-22T14:08:18.000Z</time>
      </trkpt>
      <trkpt lat="49.05355" lon="1.6855">
        <ele>11.2</ele>
        <time>2026-03-22T14:08:26.000Z</time>
      </trkpt>
      <trkpt lat="49.0535" lon="1.68538">
        <ele>11</ele>
        <time>2026-03-22T14:08:34.000Z</time>
      </trkpt>
      <trkpt lat="49.05344" lon="1.68527">
        <ele>10.8</ele>
        <time>2026-03-22T14:08:43.000Z</time>
      </trkpt>
      <trkpt lat="49.05338" lon="1.68515">
        <ele>10.8</ele>
        <time>2026-03-22T14:08:52.000Z</time>
      </trkpt>
      <trkpt lat="49.05332" lon="1.68504">
        <ele>10.8</ele>
        <time>2026-03-22T14:09:01.000Z</time>
      </trkpt>
      <trkpt lat="49.05326" lon="1.68493">
        <ele>10.8</ele>
        <time>2026-03-22T14:09:10.000Z</time>
      </trkpt>
      <trkpt lat="49.0532" lon="1.68482">
        <ele>10.9</ele>
        <time>2026-03-22T14:09:19.000Z</time>
      </trkpt>
      <trkpt lat="49.05314" lon="1.68471">
        <ele>11.1</ele>
        <time>2026-03-22T14:09:28.000Z</time>
      </trkpt>
      <trkpt lat="49.05308" lon="1.68459">
        <ele>11.3</ele>
        <time>2026-03-22T14:09:37.000Z</time>
      </trkpt>
      <trkpt lat="49.05303" lon="1.68448">
        <ele>11.6</ele>
        <time>2026-03-22T14:09:44.000Z</time>
      </trkpt>
      <trkpt lat="49.05297" lon="1.68438">
        <ele>11.9</ele>
        <time>2026-03-22T14:09:52.000Z</time>
      </trkpt>
      <trkpt lat="49.0529" lon="1.68428">
        <ele>12.2</ele>
        <time>2026-03-22T14:10:00.000Z</time>
      </trkpt>
      <trkpt lat="49.05284" lon="1.68416">
        <ele>12.5</ele>
        <time>2026-03-22T14:10:09.000Z</time>
      </trkpt>
      <trkpt lat="49.05278" lon="1.68406">
        <ele>12.8</ele>
        <time>2026-03-22T14:10:18.000Z</time>
      </trkpt>
      <trkpt lat="49.05269" lon="1.68396">
        <ele>13.2</ele>
        <time>2026-03-22T14:10:28.000Z</time>
      </trkpt>
      <trkpt lat="49.05263" lon="1.68387">
        <ele>13.5</ele>
        <time>2026-03-22T14:10:37.000Z</time>
      </trkpt>
      <trkpt lat="49.05256" lon="1.68377">
        <ele>13.8</ele>
        <time>2026-03-22T14:10:46.000Z</time>
      </trkpt>
      <trkpt lat="49.05248" lon="1.68368">
        <ele>14</ele>
        <time>2026-03-22T14:10:55.000Z</time>
      </trkpt>
      <trkpt lat="49.0524" lon="1.68359">
        <ele>14.3</ele>
        <time>2026-03-22T14:11:05.000Z</time>
      </trkpt>
      <trkpt lat="49.05232" lon="1.68352">
        <ele>14.4</ele>
        <time>2026-03-22T14:11:14.000Z</time>
      </trkpt>
      <trkpt lat="49.05223" lon="1.68351">
        <ele>14.7</ele>
        <time>2026-03-22T14:11:25.000Z</time>
      </trkpt>
      <trkpt lat="49.05214" lon="1.68355">
        <ele>14.8</ele>
        <time>2026-03-22T14:11:34.000Z</time>
      </trkpt>
      <trkpt lat="49.05205" lon="1.68355">
        <ele>15.1</ele>
        <time>2026-03-22T14:11:44.000Z</time>
      </trkpt>
      <trkpt lat="49.05194" lon="1.68357">
        <ele>15.3</ele>
        <time>2026-03-22T14:11:53.000Z</time>
      </trkpt>
      <trkpt lat="49.05184" lon="1.68353">
        <ele>15.5</ele>
        <time>2026-03-22T14:12:02.000Z</time>
      </trkpt>
      <trkpt lat="49.05177" lon="1.68344">
        <ele>15.7</ele>
        <time>2026-03-22T14:12:11.000Z</time>
      </trkpt>
      <trkpt lat="49.05169" lon="1.68336">
        <ele>15.9</ele>
        <time>2026-03-22T14:12:18.000Z</time>
      </trkpt>
      <trkpt lat="49.05163" lon="1.68325">
        <ele>16</ele>
        <time>2026-03-22T14:12:27.000Z</time>
      </trkpt>
      <trkpt lat="49.05156" lon="1.68316">
        <ele>16.1</ele>
        <time>2026-03-22T14:12:36.000Z</time>
      </trkpt>
      <trkpt lat="49.0515" lon="1.68304">
        <ele>16.1</ele>
        <time>2026-03-22T14:12:44.000Z</time>
      </trkpt>
      <trkpt lat="49.05144" lon="1.68293">
        <ele>16.1</ele>
        <time>2026-03-22T14:12:53.000Z</time>
      </trkpt>
      <trkpt lat="49.05142" lon="1.68279">
        <ele>16.1</ele>
        <time>2026-03-22T14:13:03.000Z</time>
      </trkpt>
      <trkpt lat="49.0514" lon="1.68265">
        <ele>16.2</ele>
        <time>2026-03-22T14:13:12.000Z</time>
      </trkpt>
      <trkpt lat="49.0514" lon="1.68251">
        <ele>16.2</ele>
        <time>2026-03-22T14:13:22.000Z</time>
      </trkpt>
      <trkpt lat="49.05142" lon="1.68237">
        <ele>16.5</ele>
        <time>2026-03-22T14:13:41.000Z</time>
      </trkpt>
      <trkpt lat="49.05146" lon="1.68223">
        <ele>16.7</ele>
        <time>2026-03-22T14:13:50.000Z</time>
      </trkpt>
      <trkpt lat="49.05149" lon="1.68209">
        <ele>17</ele>
        <time>2026-03-22T14:14:00.000Z</time>
      </trkpt>
      <trkpt lat="49.05145" lon="1.68195">
        <ele>17.2</ele>
        <time>2026-03-22T14:14:11.000Z</time>
      </trkpt>
      <trkpt lat="49.05139" lon="1.68183">
        <ele>17.4</ele>
        <time>2026-03-22T14:14:20.000Z</time>
      </trkpt>
      <trkpt lat="49.05133" lon="1.68171">
        <ele>17.7</ele>
        <time>2026-03-22T14:14:29.000Z</time>
      </trkpt>
      <trkpt lat="49.05127" lon="1.6816">
        <ele>18</ele>
        <time>2026-03-22T14:14:39.000Z</time>
      </trkpt>
      <trkpt lat="49.05121" lon="1.6815">
        <ele>18.2</ele>
        <time>2026-03-22T14:14:47.000Z</time>
      </trkpt>
      <trkpt lat="49.05116" lon="1.68138">
        <ele>18.4</ele>
        <time>2026-03-22T14:14:55.000Z</time>
      </trkpt>
      <trkpt lat="49.0511" lon="1.68126">
        <ele>18.7</ele>
        <time>2026-03-22T14:15:05.000Z</time>
      </trkpt>
      <trkpt lat="49.05104" lon="1.68115">
        <ele>18.9</ele>
        <time>2026-03-22T14:15:13.000Z</time>
      </trkpt>
      <trkpt lat="49.05099" lon="1.68104">
        <ele>19.2</ele>
        <time>2026-03-22T14:15:23.000Z</time>
      </trkpt>
      <trkpt lat="49.05094" lon="1.68091">
        <ele>19.5</ele>
        <time>2026-03-22T14:15:32.000Z</time>
      </trkpt>
      <trkpt lat="49.0509" lon="1.68079">
        <ele>19.8</ele>
        <time>2026-03-22T14:15:41.000Z</time>
      </trkpt>
      <trkpt lat="49.05087" lon="1.68066">
        <ele>20.1</ele>
        <time>2026-03-22T14:15:49.000Z</time>
      </trkpt>
      <trkpt lat="49.05086" lon="1.68052">
        <ele>20.3</ele>
        <time>2026-03-22T14:15:58.000Z</time>
      </trkpt>
      <trkpt lat="49.05084" lon="1.68038">
        <ele>20.4</ele>
        <time>2026-03-22T14:16:07.000Z</time>
      </trkpt>
      <trkpt lat="49.0508" lon="1.68025">
        <ele>20.5</ele>
        <time>2026-03-22T14:16:17.000Z</time>
      </trkpt>
      <trkpt lat="49.05076" lon="1.68011">
        <ele>20.5</ele>
        <time>2026-03-22T14:16:26.000Z</time>
      </trkpt>
      <trkpt lat="49.05072" lon="1.67998">
        <ele>20.5</ele>
        <time>2026-03-22T14:16:34.000Z</time>
      </trkpt>
      <trkpt lat="49.05069" lon="1.67985">
        <ele>20.5</ele>
        <time>2026-03-22T14:16:42.000Z</time>
      </trkpt>
      <trkpt lat="49.05065" lon="1.67971">
        <ele>20.5</ele>
        <time>2026-03-22T14:16:52.000Z</time>
      </trkpt>
      <trkpt lat="49.05062" lon="1.67956">
        <ele>20.5</ele>
        <time>2026-03-22T14:17:01.000Z</time>
      </trkpt>
      <trkpt lat="49.0506" lon="1.67942">
        <ele>20.5</ele>
        <time>2026-03-22T14:17:10.000Z</time>
      </trkpt>
      <trkpt lat="49.05057" lon="1.67929">
        <ele>20.6</ele>
        <time>2026-03-22T14:17:20.000Z</time>
      </trkpt>
      <trkpt lat="49.05054" lon="1.67915">
        <ele>20.6</ele>
        <time>2026-03-22T14:17:30.000Z</time>
      </trkpt>
      <trkpt lat="49.0505" lon="1.67902">
        <ele>20.6</ele>
        <time>2026-03-22T14:17:39.000Z</time>
      </trkpt>
      <trkpt lat="49.05048" lon="1.67889">
        <ele>20.5</ele>
        <time>2026-03-22T14:17:48.000Z</time>
      </trkpt>
      <trkpt lat="49.05045" lon="1.67875">
        <ele>20.5</ele>
        <time>2026-03-22T14:17:58.000Z</time>
      </trkpt>
      <trkpt lat="49.05041" lon="1.67861">
        <ele>20.4</ele>
        <time>2026-03-22T14:18:09.000Z</time>
      </trkpt>
      <trkpt lat="49.05039" lon="1.67846">
        <ele>20.3</ele>
        <time>2026-03-22T14:18:19.000Z</time>
      </trkpt>
      <trkpt lat="49.05036" lon="1.67832">
        <ele>20.2</ele>
        <time>2026-03-22T14:18:28.000Z</time>
      </trkpt>
      <trkpt lat="49.05032" lon="1.67818">
        <ele>20.1</ele>
        <time>2026-03-22T14:18:38.000Z</time>
      </trkpt>
      <trkpt lat="49.05029" lon="1.67804">
        <ele>20.1</ele>
        <time>2026-03-22T14:18:47.000Z</time>
      </trkpt>
      <trkpt lat="49.05025" lon="1.67791">
        <ele>20</ele>
        <time>2026-03-22T14:18:57.000Z</time>
      </trkpt>
      <trkpt lat="49.05022" lon="1.67776">
        <ele>20</ele>
        <time>2026-03-22T14:19:06.000Z</time>
      </trkpt>
      <trkpt lat="49.05021" lon="1.67762">
        <ele>20</ele>
        <time>2026-03-22T14:19:29.000Z</time>
      </trkpt>
      <trkpt lat="49.05017" lon="1.67748">
        <ele>20.1</ele>
        <time>2026-03-22T14:19:40.000Z</time>
      </trkpt>
      <trkpt lat="49.05014" lon="1.67733">
        <ele>20.1</ele>
        <time>2026-03-22T14:19:50.000Z</time>
      </trkpt>
      <trkpt lat="49.05011" lon="1.67718">
        <ele>20.2</ele>
        <time>2026-03-22T14:20:01.000Z</time>
      </trkpt>
      <trkpt lat="49.05009" lon="1.67704">
        <ele>20.2</ele>
        <time>2026-03-22T14:20:11.000Z</time>
      </trkpt>
      <trkpt lat="49.05007" lon="1.6769">
        <ele>20.3</ele>
        <time>2026-03-22T14:20:19.000Z</time>
      </trkpt>
      <trkpt lat="49.05004" lon="1.67677">
        <ele>20.3</ele>
        <time>2026-03-22T14:20:29.000Z</time>
      </trkpt>
      <trkpt lat="49.05" lon="1.67664">
        <ele>20.4</ele>
        <time>2026-03-22T14:20:38.000Z</time>
      </trkpt>
      <trkpt lat="49.04999" lon="1.67649">
        <ele>20.5</ele>
        <time>2026-03-22T14:20:47.000Z</time>
      </trkpt>
      <trkpt lat="49.04999" lon="1.67634">
        <ele>20.6</ele>
        <time>2026-03-22T14:20:56.000Z</time>
      </trkpt>
      <trkpt lat="49.05" lon="1.6762">
        <ele>20.8</ele>
        <time>2026-03-22T14:21:08.000Z</time>
      </trkpt>
      <trkpt lat="49.05002" lon="1.67606">
        <ele>20.9</ele>
        <time>2026-03-22T14:21:19.000Z</time>
      </trkpt>
      <trkpt lat="49.05003" lon="1.67592">
        <ele>21</ele>
        <time>2026-03-22T14:21:29.000Z</time>
      </trkpt>
      <trkpt lat="49.05003" lon="1.67577">
        <ele>21.2</ele>
        <time>2026-03-22T14:21:38.000Z</time>
      </trkpt>
      <trkpt lat="49.05003" lon="1.67562">
        <ele>21.2</ele>
        <time>2026-03-22T14:21:47.000Z</time>
      </trkpt>
      <trkpt lat="49.05001" lon="1.67547">
        <ele>21.2</ele>
        <time>2026-03-22T14:21:56.000Z</time>
      </trkpt>
      <trkpt lat="49.04999" lon="1.67533">
        <ele>21.2</ele>
        <time>2026-03-22T14:22:04.000Z</time>
      </trkpt>
      <trkpt lat="49.04997" lon="1.67519">
        <ele>21</ele>
        <time>2026-03-22T14:22:13.000Z</time>
      </trkpt>
      <trkpt lat="49.04993" lon="1.67507">
        <ele>20.8</ele>
        <time>2026-03-22T14:22:21.000Z</time>
      </trkpt>
      <trkpt lat="49.0499" lon="1.67492">
        <ele>20.3</ele>
        <time>2026-03-22T14:22:32.000Z</time>
      </trkpt>
      <trkpt lat="49.04988" lon="1.67477">
        <ele>19.9</ele>
        <time>2026-03-22T14:22:42.000Z</time>
      </trkpt>
      <trkpt lat="49.04984" lon="1.67463">
        <ele>19.4</ele>
        <time>2026-03-22T14:22:52.000Z</time>
      </trkpt>
      <trkpt lat="49.04982" lon="1.67448">
        <ele>18.9</ele>
        <time>2026-03-22T14:23:02.000Z</time>
      </trkpt>
      <trkpt lat="49.04979" lon="1.67435">
        <ele>18.5</ele>
        <time>2026-03-22T14:23:11.000Z</time>
      </trkpt>
      <trkpt lat="49.04975" lon="1.67422">
        <ele>18.2</ele>
        <time>2026-03-22T14:23:20.000Z</time>
      </trkpt>
      <trkpt lat="49.04971" lon="1.67409">
        <ele>18</ele>
        <time>2026-03-22T14:23:29.000Z</time>
      </trkpt>
      <trkpt lat="49.04966" lon="1.67396">
        <ele>17.8</ele>
        <time>2026-03-22T14:23:39.000Z</time>
      </trkpt>
      <trkpt lat="49.04964" lon="1.67381">
        <ele>17.7</ele>
        <time>2026-03-22T14:23:48.000Z</time>
      </trkpt>
      <trkpt lat="49.04962" lon="1.67367">
        <ele>17.7</ele>
        <time>2026-03-22T14:23:59.000Z</time>
      </trkpt>
      <trkpt lat="49.04959" lon="1.67353">
        <ele>17.6</ele>
        <time>2026-03-22T14:24:12.000Z</time>
      </trkpt>
      <trkpt lat="49.04958" lon="1.67339">
        <ele>17.5</ele>
        <time>2026-03-22T14:24:23.000Z</time>
      </trkpt>
      <trkpt lat="49.04953" lon="1.67326">
        <ele>17.4</ele>
        <time>2026-03-22T14:24:32.000Z</time>
      </trkpt>
      <trkpt lat="49.04949" lon="1.67313">
        <ele>17.3</ele>
        <time>2026-03-22T14:24:42.000Z</time>
      </trkpt>
      <trkpt lat="49.04945" lon="1.67301">
        <ele>17.2</ele>
        <time>2026-03-22T14:24:51.000Z</time>
      </trkpt>
      <trkpt lat="49.04941" lon="1.67287">
        <ele>17.2</ele>
        <time>2026-03-22T14:25:02.000Z</time>
      </trkpt>
      <trkpt lat="49.04936" lon="1.67274">
        <ele>17.1</ele>
        <time>2026-03-22T14:25:15.000Z</time>
      </trkpt>
      <trkpt lat="49.04931" lon="1.67261">
        <ele>17.2</ele>
        <time>2026-03-22T14:25:31.000Z</time>
      </trkpt>
      <trkpt lat="49.04926" lon="1.67249">
        <ele>17.3</ele>
        <time>2026-03-22T14:25:41.000Z</time>
      </trkpt>
      <trkpt lat="49.04926" lon="1.67236">
        <ele>17.8</ele>
        <time>2026-03-22T14:26:22.000Z</time>
      </trkpt>
      <trkpt lat="49.04923" lon="1.67221">
        <ele>17.8</ele>
        <time>2026-03-22T14:26:33.000Z</time>
      </trkpt>
      <trkpt lat="49.0492" lon="1.67208">
        <ele>17.7</ele>
        <time>2026-03-22T14:26:43.000Z</time>
      </trkpt>
      <trkpt lat="49.04915" lon="1.67196">
        <ele>17.5</ele>
        <time>2026-03-22T14:26:52.000Z</time>
      </trkpt>
      <trkpt lat="49.0491" lon="1.67183">
        <ele>17.4</ele>
        <time>2026-03-22T14:27:02.000Z</time>
      </trkpt>
      <trkpt lat="49.04908" lon="1.67168">
        <ele>17.2</ele>
        <time>2026-03-22T14:27:11.000Z</time>
      </trkpt>
      <trkpt lat="49.04905" lon="1.67155">
        <ele>17</ele>
        <time>2026-03-22T14:27:20.000Z</time>
      </trkpt>
      <trkpt lat="49.04904" lon="1.6714">
        <ele>17</ele>
        <time>2026-03-22T14:27:28.000Z</time>
      </trkpt>
      <trkpt lat="49.04905" lon="1.67125">
        <ele>17</ele>
        <time>2026-03-22T14:27:37.000Z</time>
      </trkpt>
      <trkpt lat="49.04907" lon="1.6711">
        <ele>17</ele>
        <time>2026-03-22T14:27:47.000Z</time>
      </trkpt>
      <trkpt lat="49.0491" lon="1.67097">
        <ele>17</ele>
        <time>2026-03-22T14:27:56.000Z</time>
      </trkpt>
      <trkpt lat="49.04914" lon="1.67084">
        <ele>17</ele>
        <time>2026-03-22T14:28:05.000Z</time>
      </trkpt>
      <trkpt lat="49.04917" lon="1.6707">
        <ele>16.9</ele>
        <time>2026-03-22T14:28:14.000Z</time>
      </trkpt>
      <trkpt lat="49.04919" lon="1.67056">
        <ele>16.9</ele>
        <time>2026-03-22T14:28:22.000Z</time>
      </trkpt>
      <trkpt lat="49.04921" lon="1.67042">
        <ele>16.7</ele>
        <time>2026-03-22T14:28:31.000Z</time>
      </trkpt>
      <trkpt lat="49.04926" lon="1.67027">
        <ele>16.6</ele>
        <time>2026-03-22T14:28:40.000Z</time>
      </trkpt>
      <trkpt lat="49.04931" lon="1.67016">
        <ele>16.4</ele>
        <time>2026-03-22T14:28:51.000Z</time>
      </trkpt>
      <trkpt lat="49.04936" lon="1.67003">
        <ele>16.4</ele>
        <time>2026-03-22T14:29:00.000Z</time>
      </trkpt>
      <trkpt lat="49.0494" lon="1.6699">
        <ele>16.3</ele>
        <time>2026-03-22T14:29:10.000Z</time>
      </trkpt>
      <trkpt lat="49.04944" lon="1.66977">
        <ele>16.3</ele>
        <time>2026-03-22T14:29:19.000Z</time>
      </trkpt>
      <trkpt lat="49.04947" lon="1.66963">
        <ele>16.3</ele>
        <time>2026-03-22T14:29:29.000Z</time>
      </trkpt>
      <trkpt lat="49.04953" lon="1.66961">
        <ele>16</ele>
        <time>2026-03-22T14:30:00.000Z</time>
      </trkpt>
      <trkpt lat="49.04954" lon="1.6696">
        <ele>15.2</ele>
        <time>2026-03-22T14:30:21.000Z</time>
      </trkpt>
      <trkpt lat="49.04953" lon="1.6696">
        <ele>14.6</ele>
        <time>2026-03-22T14:30:42.000Z</time>
      </trkpt>
      <trkpt lat="49.04954" lon="1.6696">
        <ele>16.4</ele>
        <time>2026-03-22T14:32:14.000Z</time>
      </trkpt>
      <trkpt lat="49.04954" lon="1.6696">
        <ele>16.7</ele>
        <time>2026-03-22T14:32:25.000Z</time>
      </trkpt>
      <trkpt lat="49.04955" lon="1.6696">
        <ele>19.6</ele>
        <time>2026-03-22T14:33:39.000Z</time>
      </trkpt>
      <trkpt lat="49.04951" lon="1.66947">
        <ele>21.1</ele>
        <time>2026-03-22T14:34:00.000Z</time>
      </trkpt>
      <trkpt lat="49.0495" lon="1.66933">
        <ele>21.4</ele>
        <time>2026-03-22T14:34:10.000Z</time>
      </trkpt>
      <trkpt lat="49.04946" lon="1.66919">
        <ele>21.6</ele>
        <time>2026-03-22T14:34:20.000Z</time>
      </trkpt>
      <trkpt lat="49.04943" lon="1.66906">
        <ele>21.7</ele>
        <time>2026-03-22T14:34:29.000Z</time>
      </trkpt>
      <trkpt lat="49.04938" lon="1.66893">
        <ele>21.7</ele>
        <time>2026-03-22T14:34:39.000Z</time>
      </trkpt>
      <trkpt lat="49.04935" lon="1.66879">
        <ele>21.8</ele>
        <time>2026-03-22T14:34:48.000Z</time>
      </trkpt>
      <trkpt lat="49.04931" lon="1.66866">
        <ele>21.8</ele>
        <time>2026-03-22T14:34:57.000Z</time>
      </trkpt>
      <trkpt lat="49.04926" lon="1.66854">
        <ele>21.8</ele>
        <time>2026-03-22T14:35:06.000Z</time>
      </trkpt>
      <trkpt lat="49.04922" lon="1.66841">
        <ele>21.8</ele>
        <time>2026-03-22T14:35:15.000Z</time>
      </trkpt>
      <trkpt lat="49.04919" lon="1.66828">
        <ele>21.7</ele>
        <time>2026-03-22T14:35:24.000Z</time>
      </trkpt>
      <trkpt lat="49.04914" lon="1.66814">
        <ele>21.7</ele>
        <time>2026-03-22T14:35:33.000Z</time>
      </trkpt>
      <trkpt lat="49.04911" lon="1.66802">
        <ele>21.6</ele>
        <time>2026-03-22T14:35:41.000Z</time>
      </trkpt>
      <trkpt lat="49.04908" lon="1.66789">
        <ele>21.6</ele>
        <time>2026-03-22T14:35:50.000Z</time>
      </trkpt>
      <trkpt lat="49.04904" lon="1.66775">
        <ele>21.5</ele>
        <time>2026-03-22T14:35:59.000Z</time>
      </trkpt>
      <trkpt lat="49.04901" lon="1.66762">
        <ele>21.4</ele>
        <time>2026-03-22T14:36:07.000Z</time>
      </trkpt>
      <trkpt lat="49.04897" lon="1.66747">
        <ele>21.2</ele>
        <time>2026-03-22T14:36:16.000Z</time>
      </trkpt>
      <trkpt lat="49.04894" lon="1.66734">
        <ele>21</ele>
        <time>2026-03-22T14:36:25.000Z</time>
      </trkpt>
      <trkpt lat="49.0489" lon="1.6672">
        <ele>20.6</ele>
        <time>2026-03-22T14:36:39.000Z</time>
      </trkpt>
      <trkpt lat="49.04886" lon="1.66707">
        <ele>20.4</ele>
        <time>2026-03-22T14:36:48.000Z</time>
      </trkpt>
      <trkpt lat="49.04884" lon="1.66692">
        <ele>20.1</ele>
        <time>2026-03-22T14:36:58.000Z</time>
      </trkpt>
      <trkpt lat="49.0488" lon="1.66679">
        <ele>19.8</ele>
        <time>2026-03-22T14:37:06.000Z</time>
      </trkpt>
      <trkpt lat="49.04877" lon="1.66666">
        <ele>19.4</ele>
        <time>2026-03-22T14:37:16.000Z</time>
      </trkpt>
      <trkpt lat="49.04874" lon="1.66652">
        <ele>19.1</ele>
        <time>2026-03-22T14:37:25.000Z</time>
      </trkpt>
      <trkpt lat="49.04872" lon="1.66639">
        <ele>18.9</ele>
        <time>2026-03-22T14:37:34.000Z</time>
      </trkpt>
      <trkpt lat="49.04871" lon="1.66623">
        <ele>18.8</ele>
        <time>2026-03-22T14:37:44.000Z</time>
      </trkpt>
      <trkpt lat="49.04869" lon="1.66608">
        <ele>18.9</ele>
        <time>2026-03-22T14:37:55.000Z</time>
      </trkpt>
      <trkpt lat="49.04872" lon="1.66594">
        <ele>18.9</ele>
        <time>2026-03-22T14:38:04.000Z</time>
      </trkpt>
      <trkpt lat="49.04879" lon="1.66582">
        <ele>19</ele>
        <time>2026-03-22T14:38:16.000Z</time>
      </trkpt>
      <trkpt lat="49.04886" lon="1.66572">
        <ele>19.3</ele>
        <time>2026-03-22T14:38:27.000Z</time>
      </trkpt>
      <trkpt lat="49.04895" lon="1.66566">
        <ele>19.6</ele>
        <time>2026-03-22T14:38:36.000Z</time>
      </trkpt>
      <trkpt lat="49.04902" lon="1.66556">
        <ele>19.8</ele>
        <time>2026-03-22T14:38:43.000Z</time>
      </trkpt>
      <trkpt lat="49.04908" lon="1.66546">
        <ele>20.2</ele>
        <time>2026-03-22T14:38:52.000Z</time>
      </trkpt>
      <trkpt lat="49.04917" lon="1.66542">
        <ele>20.6</ele>
        <time>2026-03-22T14:39:01.000Z</time>
      </trkpt>
      <trkpt lat="49.04927" lon="1.66545">
        <ele>20.9</ele>
        <time>2026-03-22T14:39:10.000Z</time>
      </trkpt>
      <trkpt lat="49.04936" lon="1.66552">
        <ele>21.2</ele>
        <time>2026-03-22T14:39:19.000Z</time>
      </trkpt>
      <trkpt lat="49.04943" lon="1.6656">
        <ele>21.5</ele>
        <time>2026-03-22T14:39:27.000Z</time>
      </trkpt>
      <trkpt lat="49.04951" lon="1.66568">
        <ele>21.8</ele>
        <time>2026-03-22T14:39:35.000Z</time>
      </trkpt>
      <trkpt lat="49.0496" lon="1.66576">
        <ele>22.2</ele>
        <time>2026-03-22T14:39:44.000Z</time>
      </trkpt>
      <trkpt lat="49.04967" lon="1.66583">
        <ele>22.6</ele>
        <time>2026-03-22T14:39:52.000Z</time>
      </trkpt>
      <trkpt lat="49.04975" lon="1.66594">
        <ele>22.9</ele>
        <time>2026-03-22T14:40:01.000Z</time>
      </trkpt>
      <trkpt lat="49.0498" lon="1.66605">
        <ele>23.2</ele>
        <time>2026-03-22T14:40:09.000Z</time>
      </trkpt>
      <trkpt lat="49.04985" lon="1.66617">
        <ele>23.4</ele>
        <time>2026-03-22T14:40:17.000Z</time>
      </trkpt>
      <trkpt lat="49.04992" lon="1.66628">
        <ele>23.5</ele>
        <time>2026-03-22T14:40:26.000Z</time>
      </trkpt>
      <trkpt lat="49.05" lon="1.66637">
        <ele>23.6</ele>
        <time>2026-03-22T14:40:35.000Z</time>
      </trkpt>
      <trkpt lat="49.05007" lon="1.66647">
        <ele>23.7</ele>
        <time>2026-03-22T14:40:44.000Z</time>
      </trkpt>
      <trkpt lat="49.05014" lon="1.66656">
        <ele>23.7</ele>
        <time>2026-03-22T14:40:52.000Z</time>
      </trkpt>
      <trkpt lat="49.05021" lon="1.66668">
        <ele>23.7</ele>
        <time>2026-03-22T14:41:01.000Z</time>
      </trkpt>
      <trkpt lat="49.05029" lon="1.66677">
        <ele>23.6</ele>
        <time>2026-03-22T14:41:10.000Z</time>
      </trkpt>
      <trkpt lat="49.05036" lon="1.66685">
        <ele>23.5</ele>
        <time>2026-03-22T14:41:19.000Z</time>
      </trkpt>
      <trkpt lat="49.05043" lon="1.66696">
        <ele>23.3</ele>
        <time>2026-03-22T14:41:28.000Z</time>
      </trkpt>
      <trkpt lat="49.05047" lon="1.6671">
        <ele>23.1</ele>
        <time>2026-03-22T14:41:37.000Z</time>
      </trkpt>
      <trkpt lat="49.05053" lon="1.66721">
        <ele>22.9</ele>
        <time>2026-03-22T14:41:46.000Z</time>
      </trkpt>
      <trkpt lat="49.0506" lon="1.66731">
        <ele>22.6</ele>
        <time>2026-03-22T14:41:55.000Z</time>
      </trkpt>
      <trkpt lat="49.05066" lon="1.66742">
        <ele>22.4</ele>
        <time>2026-03-22T14:42:04.000Z</time>
      </trkpt>
      <trkpt lat="49.05074" lon="1.66752">
        <ele>22.1</ele>
        <time>2026-03-22T14:42:14.000Z</time>
      </trkpt>
      <trkpt lat="49.05078" lon="1.66765">
        <ele>21.7</ele>
        <time>2026-03-22T14:42:25.000Z</time>
      </trkpt>
      <trkpt lat="49.05082" lon="1.66777">
        <ele>21.5</ele>
        <time>2026-03-22T14:42:34.000Z</time>
      </trkpt>
      <trkpt lat="49.05086" lon="1.66791">
        <ele>21.2</ele>
        <time>2026-03-22T14:42:42.000Z</time>
      </trkpt>
      <trkpt lat="49.05091" lon="1.66804">
        <ele>21</ele>
        <time>2026-03-22T14:42:52.000Z</time>
      </trkpt>
      <trkpt lat="49.05098" lon="1.66815">
        <ele>20.8</ele>
        <time>2026-03-22T14:43:01.000Z</time>
      </trkpt>
      <trkpt lat="49.05103" lon="1.66827">
        <ele>20.6</ele>
        <time>2026-03-22T14:43:10.000Z</time>
      </trkpt>
      <trkpt lat="49.05109" lon="1.66839">
        <ele>20.4</ele>
        <time>2026-03-22T14:43:19.000Z</time>
      </trkpt>
      <trkpt lat="49.05115" lon="1.6685">
        <ele>20.2</ele>
        <time>2026-03-22T14:43:28.000Z</time>
      </trkpt>
      <trkpt lat="49.05121" lon="1.66862">
        <ele>20</ele>
        <time>2026-03-22T14:43:38.000Z</time>
      </trkpt>
      <trkpt lat="49.05128" lon="1.66872">
        <ele>19.9</ele>
        <time>2026-03-22T14:43:47.000Z</time>
      </trkpt>
      <trkpt lat="49.05135" lon="1.66881">
        <ele>19.8</ele>
        <time>2026-03-22T14:43:56.000Z</time>
      </trkpt>
      <trkpt lat="49.05142" lon="1.66891">
        <ele>19.7</ele>
        <time>2026-03-22T14:44:06.000Z</time>
      </trkpt>
      <trkpt lat="49.0515" lon="1.66899">
        <ele>19.6</ele>
        <time>2026-03-22T14:44:15.000Z</time>
      </trkpt>
      <trkpt lat="49.05159" lon="1.66903">
        <ele>19.5</ele>
        <time>2026-03-22T14:44:24.000Z</time>
      </trkpt>
      <trkpt lat="49.05167" lon="1.66908">
        <ele>19.5</ele>
        <time>2026-03-22T14:44:34.000Z</time>
      </trkpt>
      <trkpt lat="49.05177" lon="1.66911">
        <ele>19.4</ele>
        <time>2026-03-22T14:44:43.000Z</time>
      </trkpt>
      <trkpt lat="49.05186" lon="1.66915">
        <ele>19.4</ele>
        <time>2026-03-22T14:44:52.000Z</time>
      </trkpt>
      <trkpt lat="49.05195" lon="1.66919">
        <ele>19.3</ele>
        <time>2026-03-22T14:45:01.000Z</time>
      </trkpt>
      <trkpt lat="49.05204" lon="1.66923">
        <ele>19.2</ele>
        <time>2026-03-22T14:45:11.000Z</time>
      </trkpt>
      <trkpt lat="49.05213" lon="1.66928">
        <ele>19.1</ele>
        <time>2026-03-22T14:45:21.000Z</time>
      </trkpt>
      <trkpt lat="49.05222" lon="1.6693">
        <ele>18.9</ele>
        <time>2026-03-22T14:45:30.000Z</time>
      </trkpt>
      <trkpt lat="49.05232" lon="1.66932">
        <ele>18.7</ele>
        <time>2026-03-22T14:45:39.000Z</time>
      </trkpt>
      <trkpt lat="49.05241" lon="1.66935">
        <ele>18.5</ele>
        <time>2026-03-22T14:45:49.000Z</time>
      </trkpt>
      <trkpt lat="49.0525" lon="1.66937">
        <ele>18.5</ele>
        <time>2026-03-22T14:45:57.000Z</time>
      </trkpt>
      <trkpt lat="49.05259" lon="1.66939">
        <ele>18.5</ele>
        <time>2026-03-22T14:46:06.000Z</time>
      </trkpt>
      <trkpt lat="49.05268" lon="1.66942">
        <ele>18.4</ele>
        <time>2026-03-22T14:46:16.000Z</time>
      </trkpt>
      <trkpt lat="49.05278" lon="1.66943">
        <ele>18.4</ele>
        <time>2026-03-22T14:46:25.000Z</time>
      </trkpt>
      <trkpt lat="49.05288" lon="1.66944">
        <ele>18.4</ele>
        <time>2026-03-22T14:46:33.000Z</time>
      </trkpt>
      <trkpt lat="49.05297" lon="1.66947">
        <ele>18.3</ele>
        <time>2026-03-22T14:46:43.000Z</time>
      </trkpt>
      <trkpt lat="49.05307" lon="1.66951">
        <ele>18.2</ele>
        <time>2026-03-22T14:46:53.000Z</time>
      </trkpt>
      <trkpt lat="49.05316" lon="1.66955">
        <ele>18.1</ele>
        <time>2026-03-22T14:47:02.000Z</time>
      </trkpt>
      <trkpt lat="49.05324" lon="1.66962">
        <ele>17.9</ele>
        <time>2026-03-22T14:47:11.000Z</time>
      </trkpt>
      <trkpt lat="49.05331" lon="1.66971">
        <ele>17.7</ele>
        <time>2026-03-22T14:47:20.000Z</time>
      </trkpt>
      <trkpt lat="49.05338" lon="1.6698">
        <ele>17.5</ele>
        <time>2026-03-22T14:47:29.000Z</time>
      </trkpt>
      <trkpt lat="49.05345" lon="1.6699">
        <ele>17.2</ele>
        <time>2026-03-22T14:47:40.000Z</time>
      </trkpt>
      <trkpt lat="49.05352" lon="1.67001">
        <ele>17</ele>
        <time>2026-03-22T14:47:53.000Z</time>
      </trkpt>
      <trkpt lat="49.05358" lon="1.67011">
        <ele>16.9</ele>
        <time>2026-03-22T14:48:03.000Z</time>
      </trkpt>
      <trkpt lat="49.05365" lon="1.67021">
        <ele>16.8</ele>
        <time>2026-03-22T14:48:12.000Z</time>
      </trkpt>
      <trkpt lat="49.05373" lon="1.67029">
        <ele>16.8</ele>
        <time>2026-03-22T14:48:21.000Z</time>
      </trkpt>
      <trkpt lat="49.05378" lon="1.67041">
        <ele>16.8</ele>
        <time>2026-03-22T14:48:30.000Z</time>
      </trkpt>
      <trkpt lat="49.05381" lon="1.67054">
        <ele>16.8</ele>
        <time>2026-03-22T14:48:39.000Z</time>
      </trkpt>
      <trkpt lat="49.05383" lon="1.67068">
        <ele>17</ele>
        <time>2026-03-22T14:48:57.000Z</time>
      </trkpt>
      <trkpt lat="49.0539" lon="1.67077">
        <ele>17.1</ele>
        <time>2026-03-22T14:49:06.000Z</time>
      </trkpt>
      <trkpt lat="49.05396" lon="1.67089">
        <ele>17.3</ele>
        <time>2026-03-22T14:49:17.000Z</time>
      </trkpt>
      <trkpt lat="49.05403" lon="1.67099">
        <ele>17.5</ele>
        <time>2026-03-22T14:49:26.000Z</time>
      </trkpt>
      <trkpt lat="49.0541" lon="1.67111">
        <ele>17.8</ele>
        <time>2026-03-22T14:49:36.000Z</time>
      </trkpt>
      <trkpt lat="49.05416" lon="1.67122">
        <ele>18.1</ele>
        <time>2026-03-22T14:49:46.000Z</time>
      </trkpt>
      <trkpt lat="49.05422" lon="1.67134">
        <ele>18.4</ele>
        <time>2026-03-22T14:49:55.000Z</time>
      </trkpt>
      <trkpt lat="49.05429" lon="1.67145">
        <ele>18.7</ele>
        <time>2026-03-22T14:50:05.000Z</time>
      </trkpt>
      <trkpt lat="49.05436" lon="1.67154">
        <ele>19.1</ele>
        <time>2026-03-22T14:50:16.000Z</time>
      </trkpt>
      <trkpt lat="49.05442" lon="1.67165">
        <ele>19.5</ele>
        <time>2026-03-22T14:50:28.000Z</time>
      </trkpt>
      <trkpt lat="49.05449" lon="1.67176">
        <ele>19.8</ele>
        <time>2026-03-22T14:50:38.000Z</time>
      </trkpt>
      <trkpt lat="49.05455" lon="1.67186">
        <ele>20</ele>
        <time>2026-03-22T14:50:46.000Z</time>
      </trkpt>
      <trkpt lat="49.05461" lon="1.67198">
        <ele>20.3</ele>
        <time>2026-03-22T14:50:56.000Z</time>
      </trkpt>
      <trkpt lat="49.05467" lon="1.6721">
        <ele>20.5</ele>
        <time>2026-03-22T14:51:07.000Z</time>
      </trkpt>
      <trkpt lat="49.05476" lon="1.67219">
        <ele>20.7</ele>
        <time>2026-03-22T14:51:17.000Z</time>
      </trkpt>
      <trkpt lat="49.05482" lon="1.67229">
        <ele>20.8</ele>
        <time>2026-03-22T14:51:26.000Z</time>
      </trkpt>
      <trkpt lat="49.05487" lon="1.67241">
        <ele>20.9</ele>
        <time>2026-03-22T14:51:35.000Z</time>
      </trkpt>
      <trkpt lat="49.05493" lon="1.67253">
        <ele>21</ele>
        <time>2026-03-22T14:51:44.000Z</time>
      </trkpt>
      <trkpt lat="49.05499" lon="1.67263">
        <ele>21.1</ele>
        <time>2026-03-22T14:51:54.000Z</time>
      </trkpt>
      <trkpt lat="49.05507" lon="1.67272">
        <ele>21.2</ele>
        <time>2026-03-22T14:52:04.000Z</time>
      </trkpt>
      <trkpt lat="49.05508" lon="1.67286">
        <ele>21.2</ele>
        <time>2026-03-22T14:52:14.000Z</time>
      </trkpt>
      <trkpt lat="49.05511" lon="1.673">
        <ele>21.2</ele>
        <time>2026-03-22T14:52:26.000Z</time>
      </trkpt>
      <trkpt lat="49.05515" lon="1.67313">
        <ele>21.2</ele>
        <time>2026-03-22T14:52:43.000Z</time>
      </trkpt>
      <trkpt lat="49.05519" lon="1.67326">
        <ele>21.1</ele>
        <time>2026-03-22T14:52:55.000Z</time>
      </trkpt>
      <trkpt lat="49.05516" lon="1.67339">
        <ele>20.5</ele>
        <time>2026-03-22T14:53:35.000Z</time>
      </trkpt>
      <trkpt lat="49.05517" lon="1.67353">
        <ele>20.1</ele>
        <time>2026-03-22T14:53:45.000Z</time>
      </trkpt>
      <trkpt lat="49.0552" lon="1.67366">
        <ele>19.6</ele>
        <time>2026-03-22T14:53:55.000Z</time>
      </trkpt>
      <trkpt lat="49.05526" lon="1.67377">
        <ele>18.6</ele>
        <time>2026-03-22T14:54:13.000Z</time>
      </trkpt>
      <trkpt lat="49.05533" lon="1.67386">
        <ele>18.4</ele>
        <time>2026-03-22T14:54:24.000Z</time>
      </trkpt>
      <trkpt lat="49.0554" lon="1.67394">
        <ele>18.3</ele>
        <time>2026-03-22T14:54:34.000Z</time>
      </trkpt>
      <trkpt lat="49.05546" lon="1.67405">
        <ele>18.3</ele>
        <time>2026-03-22T14:54:44.000Z</time>
      </trkpt>
      <trkpt lat="49.0555" lon="1.67418">
        <ele>18.2</ele>
        <time>2026-03-22T14:54:57.000Z</time>
      </trkpt>
      <trkpt lat="49.05556" lon="1.6743">
        <ele>18.2</ele>
        <time>2026-03-22T14:55:08.000Z</time>
      </trkpt>
      <trkpt lat="49.05563" lon="1.67438">
        <ele>18.1</ele>
        <time>2026-03-22T14:55:22.000Z</time>
      </trkpt>
      <trkpt lat="49.05567" lon="1.6745">
        <ele>18.1</ele>
        <time>2026-03-22T14:55:38.000Z</time>
      </trkpt>
      <trkpt lat="49.0557" lon="1.67448">
        <ele>17.7</ele>
        <time>2026-03-22T14:56:02.000Z</time>
      </trkpt>
      <trkpt lat="49.0557" lon="1.67448">
        <ele>17.1</ele>
        <time>2026-03-22T14:56:24.000Z</time>
      </trkpt>
      <trkpt lat="49.05563" lon="1.67456">
        <ele>17.6</ele>
        <time>2026-03-22T14:57:01.000Z</time>
      </trkpt>
      <trkpt lat="49.05562" lon="1.67458">
        <ele>17.9</ele>
        <time>2026-03-22T14:57:20.000Z</time>
      </trkpt>
      <trkpt lat="49.05562" lon="1.67459">
        <ele>18.1</ele>
        <time>2026-03-22T14:57:37.000Z</time>
      </trkpt>
      <trkpt lat="49.05568" lon="1.67449">
        <ele>17.8</ele>
        <time>2026-03-22T14:58:04.000Z</time>
      </trkpt>
      <trkpt lat="49.05562" lon="1.67459">
        <ele>15.9</ele>
        <time>2026-03-22T14:58:38.000Z</time>
      </trkpt>
      <trkpt lat="49.05562" lon="1.67461">
        <ele>15</ele>
        <time>2026-03-22T14:59:12.000Z</time>
      </trkpt>
      <trkpt lat="49.05564" lon="1.67455">
        <ele>14.9</ele>
        <time>2026-03-22T14:59:31.000Z</time>
      </trkpt>
      <trkpt lat="49.05571" lon="1.67447">
        <ele>14.7</ele>
        <time>2026-03-22T14:59:54.000Z</time>
      </trkpt>
      <trkpt lat="49.05571" lon="1.67448">
        <ele>14.2</ele>
        <time>2026-03-22T15:00:10.000Z</time>
      </trkpt>
      <trkpt lat="49.05571" lon="1.67449">
        <ele>13.4</ele>
        <time>2026-03-22T15:00:57.000Z</time>
      </trkpt>
      <trkpt lat="49.05571" lon="1.67449">
        <ele>13.4</ele>
        <time>2026-03-22T15:01:05.000Z</time>
      </trkpt>
      <trkpt lat="49.0557" lon="1.67449">
        <ele>13.4</ele>
        <time>2026-03-22T15:01:12.000Z</time>
      </trkpt>
      <trkpt lat="49.0557" lon="1.6745">
        <ele>13.4</ele>
        <time>2026-03-22T15:01:39.000Z</time>
      </trkpt>
      <trkpt lat="49.0557" lon="1.6745">
        <ele>13.4</ele>
        <time>2026-03-22T15:02:02.000Z</time>
      </trkpt>
      <trkpt lat="49.0557" lon="1.67449">
        <ele>13.4</ele>
        <time>2026-03-22T15:02:12.000Z</time>
      </trkpt>
      <trkpt lat="49.05569" lon="1.67449">
        <ele>13.4</ele>
        <time>2026-03-22T15:02:30.000Z</time>
      </trkpt>
      <trkpt lat="49.05569" lon="1.6745">
        <ele>13.4</ele>
        <time>2026-03-22T15:02:46.000Z</time>
      </trkpt>
      <trkpt lat="49.0557" lon="1.6745">
        <ele>13.4</ele>
        <time>2026-03-22T15:03:25.000Z</time>
      </trkpt>
      <trkpt lat="49.05571" lon="1.6745">
        <ele>13.2</ele>
        <time>2026-03-22T15:03:36.000Z</time>
      </trkpt>
      <trkpt lat="49.05571" lon="1.6745">
        <ele>13.6</ele>
        <time>2026-03-22T15:04:11.000Z</time>
      </trkpt>
      <trkpt lat="49.0557" lon="1.67451">
        <ele>14</ele>
        <time>2026-03-22T15:04:45.000Z</time>
      </trkpt>
      <trkpt lat="49.05571" lon="1.67451">
        <ele>14.3</ele>
        <time>2026-03-22T15:05:20.000Z</time>
      </trkpt>
      <trkpt lat="49.05571" lon="1.67451">
        <ele>14.5</ele>
        <time>2026-03-22T15:05:41.000Z</time>
      </trkpt>
      <trkpt lat="49.05571" lon="1.67451">
        <ele>14.5</ele>
        <time>2026-03-22T15:05:47.000Z</time>
      </trkpt>
      <trkpt lat="49.05571" lon="1.6745">
        <ele>14</ele>
        <time>2026-03-22T15:06:02.000Z</time>
      </trkpt>
      <trkpt lat="49.05571" lon="1.67449">
        <ele>14.4</ele>
        <time>2026-03-22T15:06:52.000Z</time>
      </trkpt>
      <trkpt lat="49.05572" lon="1.67449">
        <ele>14.5</ele>
        <time>2026-03-22T15:07:02.000Z</time>
      </trkpt>
      <trkpt lat="49.05572" lon="1.67449">
        <ele>15.7</ele>
        <time>2026-03-22T15:08:39.000Z</time>
      </trkpt>
      <trkpt lat="49.05572" lon="1.67449">
        <ele>15.8</ele>
        <time>2026-03-22T15:08:50.000Z</time>
      </trkpt>
      <trkpt lat="49.05572" lon="1.67451">
        <ele>16.1</ele>
        <time>2026-03-22T15:09:30.000Z</time>
      </trkpt>
      <trkpt lat="49.05572" lon="1.67451">
        <ele>17</ele>
        <time>2026-03-22T15:09:39.000Z</time>
      </trkpt>
      <trkpt lat="49.05572" lon="1.67451">
        <ele>17.1</ele>
        <time>2026-03-22T15:09:50.000Z</time>
      </trkpt>
      <trkpt lat="49.05572" lon="1.67451">
        <ele>16.9</ele>
        <time>2026-03-22T15:10:01.000Z</time>
      </trkpt>
      <trkpt lat="49.05571" lon="1.6745">
        <ele>19</ele>
        <time>2026-03-22T15:11:05.000Z</time>
      </trkpt>
      <trkpt lat="49.05571" lon="1.6745">
        <ele>19.2</ele>
        <time>2026-03-22T15:11:16.000Z</time>
      </trkpt>
      <trkpt lat="49.05572" lon="1.6745">
        <ele>19</ele>
        <time>2026-03-22T15:11:59.000Z</time>
      </trkpt>
      <trkpt lat="49.05571" lon="1.6745">
        <ele>19.1</ele>
        <time>2026-03-22T15:12:12.000Z</time>
      </trkpt>
      <trkpt lat="49.05571" lon="1.67451">
        <ele>19.1</ele>
        <time>2026-03-22T15:12:36.000Z</time>
      </trkpt>
      <trkpt lat="49.05571" lon="1.67451">
        <ele>18.4</ele>
        <time>2026-03-22T15:12:47.000Z</time>
      </trkpt>
      <trkpt lat="49.05571" lon="1.67451">
        <ele>18.9</ele>
        <time>2026-03-22T15:13:01.000Z</time>
      </trkpt>
      <trkpt lat="49.05571" lon="1.6745">
        <ele>19.1</ele>
        <time>2026-03-22T15:13:12.000Z</time>
      </trkpt>
      <trkpt lat="49.05571" lon="1.6745">
        <ele>18.4</ele>
        <time>2026-03-22T15:13:44.000Z</time>
      </trkpt>
      <trkpt lat="49.05571" lon="1.67451">
        <ele>18.5</ele>
        <time>2026-03-22T15:13:55.000Z</time>
      </trkpt>
      <trkpt lat="49.0557" lon="1.6745">
        <ele>18</ele>
        <time>2026-03-22T15:14:30.000Z</time>
      </trkpt>
      <trkpt lat="49.0557" lon="1.6745">
        <ele>18.7</ele>
        <time>2026-03-22T15:14:41.000Z</time>
      </trkpt>
      <trkpt lat="49.05571" lon="1.6745">
        <ele>17.9</ele>
        <time>2026-03-22T15:15:12.000Z</time>
      </trkpt>
      <trkpt lat="49.05571" lon="1.6745">
        <ele>17.9</ele>
        <time>2026-03-22T15:15:24.000Z</time>
      </trkpt>
      <trkpt lat="49.05571" lon="1.6745">
        <ele>18.2</ele>
        <time>2026-03-22T15:16:11.000Z</time>
      </trkpt>
      <trkpt lat="49.05571" lon="1.6745">
        <ele>18.6</ele>
        <time>2026-03-22T15:16:22.000Z</time>
      </trkpt>
      <trkpt lat="49.05569" lon="1.6745">
        <ele>19</ele>
        <time>2026-03-22T15:16:37.000Z</time>
      </trkpt>
      <trkpt lat="49.05569" lon="1.67449">
        <ele>19.7</ele>
        <time>2026-03-22T15:17:12.000Z</time>
      </trkpt>
      <trkpt lat="49.05567" lon="1.67453">
        <ele>20.1</ele>
        <time>2026-03-22T15:17:51.000Z</time>
      </trkpt>
      <trkpt lat="49.05573" lon="1.67464">
        <ele>20.2</ele>
        <time>2026-03-22T15:18:02.000Z</time>
      </trkpt>
      <trkpt lat="49.05578" lon="1.67476">
        <ele>20.4</ele>
        <time>2026-03-22T15:18:17.000Z</time>
      </trkpt>
      <trkpt lat="49.05583" lon="1.67487">
        <ele>20.5</ele>
        <time>2026-03-22T15:18:26.000Z</time>
      </trkpt>
      <trkpt lat="49.05589" lon="1.67499">
        <ele>20.6</ele>
        <time>2026-03-22T15:18:36.000Z</time>
      </trkpt>
      <trkpt lat="49.05594" lon="1.67512">
        <ele>20.6</ele>
        <time>2026-03-22T15:18:46.000Z</time>
      </trkpt>
      <trkpt lat="49.056" lon="1.67523">
        <ele>20.6</ele>
        <time>2026-03-22T15:18:57.000Z</time>
      </trkpt>
      <trkpt lat="49.05606" lon="1.67535">
        <ele>20.7</ele>
        <time>2026-03-22T15:19:09.000Z</time>
      </trkpt>
      <trkpt lat="49.05613" lon="1.67544">
        <ele>20.8</ele>
        <time>2026-03-22T15:19:19.000Z</time>
      </trkpt>
      <trkpt lat="49.05619" lon="1.67555">
        <ele>20.8</ele>
        <time>2026-03-22T15:19:29.000Z</time>
      </trkpt>
      <trkpt lat="49.05624" lon="1.67568">
        <ele>20.8</ele>
        <time>2026-03-22T15:19:40.000Z</time>
      </trkpt>
      <trkpt lat="49.05631" lon="1.67579">
        <ele>20.9</ele>
        <time>2026-03-22T15:19:52.000Z</time>
      </trkpt>
      <trkpt lat="49.05637" lon="1.67589">
        <ele>20.9</ele>
        <time>2026-03-22T15:20:04.000Z</time>
      </trkpt>
      <trkpt lat="49.05644" lon="1.67601">
        <ele>20.9</ele>
        <time>2026-03-22T15:20:14.000Z</time>
      </trkpt>
      <trkpt lat="49.05651" lon="1.67611">
        <ele>21</ele>
        <time>2026-03-22T15:20:24.000Z</time>
      </trkpt>
      <trkpt lat="49.05657" lon="1.67622">
        <ele>21</ele>
        <time>2026-03-22T15:20:34.000Z</time>
      </trkpt>
      <trkpt lat="49.05663" lon="1.67634">
        <ele>21</ele>
        <time>2026-03-22T15:20:44.000Z</time>
      </trkpt>
      <trkpt lat="49.05669" lon="1.67644">
        <ele>21</ele>
        <time>2026-03-22T15:20:53.000Z</time>
      </trkpt>
      <trkpt lat="49.05675" lon="1.67656">
        <ele>21</ele>
        <time>2026-03-22T15:21:03.000Z</time>
      </trkpt>
      <trkpt lat="49.05681" lon="1.67666">
        <ele>21</ele>
        <time>2026-03-22T15:21:12.000Z</time>
      </trkpt>
      <trkpt lat="49.05687" lon="1.67679">
        <ele>21</ele>
        <time>2026-03-22T15:21:22.000Z</time>
      </trkpt>
      <trkpt lat="49.05692" lon="1.67691">
        <ele>21</ele>
        <time>2026-03-22T15:21:31.000Z</time>
      </trkpt>
      <trkpt lat="49.05699" lon="1.67702">
        <ele>21</ele>
        <time>2026-03-22T15:21:41.000Z</time>
      </trkpt>
      <trkpt lat="49.05705" lon="1.67713">
        <ele>21</ele>
        <time>2026-03-22T15:21:50.000Z</time>
      </trkpt>
      <trkpt lat="49.05711" lon="1.67723">
        <ele>21</ele>
        <time>2026-03-22T15:22:00.000Z</time>
      </trkpt>
      <trkpt lat="49.05718" lon="1.67733">
        <ele>21</ele>
        <time>2026-03-22T15:22:10.000Z</time>
      </trkpt>
      <trkpt lat="49.05725" lon="1.67742">
        <ele>21</ele>
        <time>2026-03-22T15:22:19.000Z</time>
      </trkpt>
      <trkpt lat="49.05733" lon="1.67751">
        <ele>21</ele>
        <time>2026-03-22T15:22:29.000Z</time>
      </trkpt>
      <trkpt lat="49.05741" lon="1.67758">
        <ele>21</ele>
        <time>2026-03-22T15:22:38.000Z</time>
      </trkpt>
      <trkpt lat="49.05748" lon="1.67767">
        <ele>21</ele>
        <time>2026-03-22T15:22:48.000Z</time>
      </trkpt>
      <trkpt lat="49.05755" lon="1.67774">
        <ele>21</ele>
        <time>2026-03-22T15:22:58.000Z</time>
      </trkpt>
      <trkpt lat="49.05763" lon="1.67783">
        <ele>21</ele>
        <time>2026-03-22T15:23:08.000Z</time>
      </trkpt>
      <trkpt lat="49.05769" lon="1.67794">
        <ele>21.1</ele>
        <time>2026-03-22T15:23:31.000Z</time>
      </trkpt>
      <trkpt lat="49.05774" lon="1.67806">
        <ele>21</ele>
        <time>2026-03-22T15:23:40.000Z</time>
      </trkpt>
      <trkpt lat="49.05778" lon="1.67819">
        <ele>20.9</ele>
        <time>2026-03-22T15:23:50.000Z</time>
      </trkpt>
      <trkpt lat="49.05783" lon="1.67832">
        <ele>20.6</ele>
        <time>2026-03-22T15:23:59.000Z</time>
      </trkpt>
      <trkpt lat="49.05787" lon="1.67845">
        <ele>20.3</ele>
        <time>2026-03-22T15:24:08.000Z</time>
      </trkpt>
      <trkpt lat="49.05792" lon="1.67856">
        <ele>20</ele>
        <time>2026-03-22T15:24:17.000Z</time>
      </trkpt>
      <trkpt lat="49.05796" lon="1.67868">
        <ele>19.8</ele>
        <time>2026-03-22T15:24:26.000Z</time>
      </trkpt>
      <trkpt lat="49.05801" lon="1.67881">
        <ele>19.7</ele>
        <time>2026-03-22T15:24:36.000Z</time>
      </trkpt>
      <trkpt lat="49.05805" lon="1.67894">
        <ele>19.7</ele>
        <time>2026-03-22T15:24:46.000Z</time>
      </trkpt>
      <trkpt lat="49.05811" lon="1.67906">
        <ele>19.7</ele>
        <time>2026-03-22T15:24:55.000Z</time>
      </trkpt>
      <trkpt lat="49.05817" lon="1.67916">
        <ele>19.7</ele>
        <time>2026-03-22T15:25:04.000Z</time>
      </trkpt>
      <trkpt lat="49.05823" lon="1.67928">
        <ele>19.7</ele>
        <time>2026-03-22T15:25:13.000Z</time>
      </trkpt>
      <trkpt lat="49.05829" lon="1.67939">
        <ele>19.8</ele>
        <time>2026-03-22T15:25:23.000Z</time>
      </trkpt>
      <trkpt lat="49.05835" lon="1.6795">
        <ele>19.8</ele>
        <time>2026-03-22T15:25:32.000Z</time>
      </trkpt>
      <trkpt lat="49.05842" lon="1.67961">
        <ele>19.9</ele>
        <time>2026-03-22T15:25:42.000Z</time>
      </trkpt>
      <trkpt lat="49.05848" lon="1.67971">
        <ele>20</ele>
        <time>2026-03-22T15:25:51.000Z</time>
      </trkpt>
      <trkpt lat="49.05855" lon="1.67981">
        <ele>20.1</ele>
        <time>2026-03-22T15:26:01.000Z</time>
      </trkpt>
      <trkpt lat="49.05861" lon="1.67992">
        <ele>20.3</ele>
        <time>2026-03-22T15:26:10.000Z</time>
      </trkpt>
      <trkpt lat="49.05869" lon="1.68002">
        <ele>20.4</ele>
        <time>2026-03-22T15:26:19.000Z</time>
      </trkpt>
      <trkpt lat="49.05875" lon="1.68011">
        <ele>20.5</ele>
        <time>2026-03-22T15:26:28.000Z</time>
      </trkpt>
      <trkpt lat="49.05882" lon="1.68021">
        <ele>20.6</ele>
        <time>2026-03-22T15:26:37.000Z</time>
      </trkpt>
      <trkpt lat="49.05889" lon="1.68031">
        <ele>20.7</ele>
        <time>2026-03-22T15:26:47.000Z</time>
      </trkpt>
      <trkpt lat="49.05895" lon="1.68042">
        <ele>20.7</ele>
        <time>2026-03-22T15:26:56.000Z</time>
      </trkpt>
      <trkpt lat="49.05903" lon="1.68052">
        <ele>20.8</ele>
        <time>2026-03-22T15:27:06.000Z</time>
      </trkpt>
      <trkpt lat="49.05911" lon="1.68061">
        <ele>20.8</ele>
        <time>2026-03-22T15:27:16.000Z</time>
      </trkpt>
      <trkpt lat="49.05918" lon="1.6807">
        <ele>20.7</ele>
        <time>2026-03-22T15:27:25.000Z</time>
      </trkpt>
      <trkpt lat="49.05927" lon="1.68075">
        <ele>20.7</ele>
        <time>2026-03-22T15:27:35.000Z</time>
      </trkpt>
      <trkpt lat="49.05937" lon="1.68072">
        <ele>20.7</ele>
        <time>2026-03-22T15:27:45.000Z</time>
      </trkpt>
      <trkpt lat="49.05946" lon="1.68071">
        <ele>20.7</ele>
        <time>2026-03-22T15:27:55.000Z</time>
      </trkpt>
      <trkpt lat="49.05955" lon="1.68069">
        <ele>20.7</ele>
        <time>2026-03-22T15:28:04.000Z</time>
      </trkpt>
      <trkpt lat="49.05963" lon="1.68062">
        <ele>20.8</ele>
        <time>2026-03-22T15:28:15.000Z</time>
      </trkpt>
      <trkpt lat="49.05969" lon="1.68051">
        <ele>20.7</ele>
        <time>2026-03-22T15:28:29.000Z</time>
      </trkpt>
      <trkpt lat="49.05972" lon="1.68037">
        <ele>20.7</ele>
        <time>2026-03-22T15:28:41.000Z</time>
      </trkpt>
      <trkpt lat="49.05972" lon="1.68023">
        <ele>20.6</ele>
        <time>2026-03-22T15:28:51.000Z</time>
      </trkpt>
      <trkpt lat="49.05971" lon="1.68008">
        <ele>20.4</ele>
        <time>2026-03-22T15:29:00.000Z</time>
      </trkpt>
      <trkpt lat="49.0597" lon="1.67994">
        <ele>20.1</ele>
        <time>2026-03-22T15:29:09.000Z</time>
      </trkpt>
      <trkpt lat="49.05975" lon="1.67982">
        <ele>19.7</ele>
        <time>2026-03-22T15:29:20.000Z</time>
      </trkpt>
      <trkpt lat="49.05983" lon="1.67975">
        <ele>19.6</ele>
        <time>2026-03-22T15:29:32.000Z</time>
      </trkpt>
      <trkpt lat="49.05983" lon="1.67975">
        <ele>18.9</ele>
        <time>2026-03-22T15:29:50.100Z</time>
      </trkpt>
      <trkpt lat="49.05983" lon="1.67975">
        <ele>18.9</ele>
        <time>2026-03-22T15:29:50.100Z</time>
      </trkpt>
    </trkseg>
  </trk>
</gpx>